Arco, Idaho
Current Conditions -  °F | °C
As of 9:50 PM on Sunday 19 Oct 2014 (Local Time) from KSUN Reporting Station
Clear Clear  
Wind Chill: 52°   Ceiling: Unl
Heat Index: 52°   Visibility: 10mi
Dew Point: 30°   Wind: 7mph
Humidity: 44%   Direction: 300°WNW
Pressure: 30.08"   Gusts: NA
Location:  43.64°N, 113.3°W
Report Text: KSUN 200350Z 30006KT 10SM SKC 11/M01 A3008
Loading
Personal Weather Stations






























Interactive Weather Map
Tropical Storm Tracking
New forecast layout! Learn more

10-Day Weather Forecast

Advertisements
Track Severe Weather on mobile